createdAt,value
2022-09-11T00:02:10.810Z,79.94
2022-09-11T00:05:13.473Z,79.72
2022-09-11T00:08:17.705Z,80.20
2022-09-11T00:11:21.672Z,79.98
2022-09-11T00:14:28.071Z,80.18
2022-09-11T00:17:30.660Z,80.16
2022-09-11T00:20:33.848Z,80.16
2022-09-11T00:23:36.673Z,80.45
2022-09-11T00:26:40.792Z,80.50
2022-09-11T00:29:44.868Z,80.80
2022-09-11T00:32:49.138Z,80.87
2022-09-11T00:35:58.386Z,80.73
2022-09-11T00:39:01.194Z,81.00
2022-09-11T00:42:03.920Z,81.15
2022-09-11T00:45:17.745Z,80.96
2022-09-11T00:48:21.993Z,81.15
2022-09-11T00:51:25.940Z,81.17
2022-09-11T00:54:32.313Z,81.03
2022-09-11T00:57:36.605Z,81.51
2022-09-11T01:00:40.968Z,81.28
2022-09-11T01:03:44.207Z,81.58
2022-09-11T01:06:46.824Z,82.12
2022-09-11T01:09:49.912Z,82.26
2022-09-11T01:12:57.288Z,82.09
2022-09-11T01:16:05.819Z,82.41
2022-09-11T01:19:17.980Z,82.38
2022-09-11T01:23:12.243Z,82.58
2022-09-11T01:26:26.369Z,82.15
2022-09-11T01:29:30.613Z,82.71
2022-09-11T01:32:35.371Z,82.48
2022-09-11T01:35:52.814Z,82.39
2022-09-11T01:38:56.571Z,82.08
2022-09-11T01:42:01.270Z,82.86
2022-09-11T01:45:05.899Z,82.59
2022-09-11T01:48:08.670Z,82.35
2022-09-11T01:51:15.406Z,82.58
2022-09-11T01:54:18.807Z,82.99
2022-09-11T01:57:24.883Z,82.85
2022-09-11T02:00:28.910Z,83.21
2022-09-11T02:03:35.545Z,82.86
2022-09-11T02:06:40.832Z,82.72
2022-09-11T02:09:47.520Z,83.06
2022-09-11T02:12:52.229Z,82.79
2022-09-11T02:15:57.204Z,82.72
2022-09-11T02:19:01.369Z,82.78
2022-09-11T02:22:04.087Z,82.53
2022-09-11T02:25:07.323Z,82.79
2022-09-11T02:28:09.906Z,82.57
2022-09-11T02:31:13.863Z,82.90
2022-09-11T02:34:17.857Z,82.67
2022-09-11T02:37:26.633Z,82.63
2022-09-11T02:40:44.001Z,82.52
2022-09-11T02:43:52.199Z,82.75
2022-09-11T02:47:07.026Z,83.03
2022-09-11T02:50:11.134Z,82.70
2022-09-11T02:53:15.367Z,83.22
2022-09-11T02:56:20.153Z,83.35
2022-09-11T02:59:24.744Z,83.31
2022-09-11T03:02:28.878Z,83.07
2022-09-11T03:05:31.557Z,83.35
2022-09-11T03:08:34.432Z,83.01
2022-09-11T03:11:37.080Z,82.82
2022-09-11T03:14:39.716Z,83.51
2022-09-11T03:17:43.694Z,82.94
2022-09-11T03:20:47.829Z,83.24
2022-09-11T03:23:50.429Z,83.47
2022-09-11T03:26:53.112Z,83.18
2022-09-11T03:29:56.209Z,83.02
2022-09-11T03:33:00.612Z,83.79
2022-09-11T03:36:03.552Z,83.41
2022-09-11T03:39:06.348Z,84.39
2022-09-11T03:42:12.203Z,83.24
2022-09-11T03:45:15.197Z,83.60
2022-09-11T03:48:19.156Z,83.88
2022-09-11T03:51:22.105Z,83.69
2022-09-11T03:54:24.730Z,83.48
2022-09-11T03:57:27.309Z,83.33
2022-09-11T04:00:30.025Z,83.43
2022-09-11T04:03:35.374Z,83.37
2022-09-11T04:06:38.068Z,83.18
2022-09-11T04:09:40.668Z,83.34
2022-09-11T04:12:44.125Z,83.51
2022-09-11T04:15:46.763Z,83.75
2022-09-11T04:18:53.364Z,83.51
2022-09-11T04:21:56.312Z,83.83
2022-09-11T04:24:58.872Z,83.44
2022-09-11T04:28:01.922Z,83.70
2022-09-11T04:31:05.775Z,83.40
2022-09-11T04:34:09.770Z,84.08
2022-09-11T04:37:12.349Z,83.41
2022-09-11T04:40:15.063Z,83.94
2022-09-11T04:43:17.915Z,83.76
2022-09-11T04:46:20.495Z,84.06
2022-09-11T04:49:24.411Z,83.31
2022-09-11T04:52:27.840Z,83.45
2022-09-11T04:55:30.472Z,83.31
2022-09-11T04:58:33.125Z,83.48
2022-09-11T05:01:35.753Z,84.03
2022-09-11T05:04:39.750Z,83.42
2022-09-11T05:07:43.903Z,83.76
2022-09-11T05:10:47.078Z,83.37
2022-09-11T05:13:49.727Z,83.89
2022-09-11T05:16:52.905Z,83.88
2022-09-11T05:19:56.932Z,84.42
2022-09-11T05:22:59.512Z,83.99
2022-09-11T05:26:02.833Z,83.56
2022-09-11T05:29:07.137Z,83.97
2022-09-11T05:32:09.826Z,83.42
2022-09-11T05:35:13.851Z,83.21
2022-09-11T05:38:16.485Z,83.66
2022-09-11T05:41:19.071Z,83.92
2022-09-11T05:44:21.723Z,83.67
2022-09-11T05:47:24.405Z,84.54
2022-09-11T05:50:28.359Z,83.64
2022-09-11T05:53:33.684Z,81.92
2022-09-11T05:56:36.682Z,79.12
2022-09-11T05:59:39.261Z,75.97
2022-09-11T06:02:41.826Z,74.02
2022-09-11T06:05:45.877Z,72.58
2022-09-11T06:08:48.471Z,71.04
2022-09-11T06:11:51.301Z,70.29
2022-09-11T06:14:54.912Z,69.89
2022-09-11T06:17:57.668Z,70.46
2022-09-11T06:21:05.689Z,71.91
2022-09-11T06:24:08.664Z,72.61
2022-09-11T06:27:11.305Z,74.00
2022-09-11T06:30:15.159Z,75.15
2022-09-11T06:33:20.237Z,75.31
2022-09-11T06:36:27.027Z,75.64
2022-09-11T06:39:29.567Z,77.04
2022-09-11T06:42:32.141Z,78.03
2022-09-11T06:45:34.722Z,78.51
2022-09-11T06:48:37.412Z,78.42
2022-09-11T06:51:42.293Z,77.83
2022-09-11T06:54:45.099Z,78.23
2022-09-11T06:57:47.664Z,78.38
2022-09-11T07:00:50.293Z,78.01
2022-09-11T07:03:54.010Z,77.74
2022-09-11T07:06:58.002Z,77.31
2022-09-11T07:10:04.990Z,76.42
2022-09-11T07:13:07.635Z,76.88
2022-09-11T07:16:10.716Z,76.43
2022-09-11T07:19:13.528Z,76.15
2022-09-11T07:22:17.521Z,76.35
2022-09-11T07:25:20.380Z,76.11
2022-09-11T07:28:22.933Z,75.23
2022-09-11T07:31:26.768Z,74.68
2022-09-11T07:34:29.514Z,74.82
2022-09-11T07:37:33.417Z,74.60
2022-09-11T07:40:36.000Z,74.68
2022-09-11T07:43:38.954Z,74.73
2022-09-11T07:46:41.611Z,74.06
2022-09-11T07:49:47.806Z,73.64
2022-09-11T07:52:51.868Z,73.73
2022-09-11T07:55:56.052Z,73.48
2022-09-11T07:58:58.891Z,72.74
2022-09-11T08:02:02.768Z,72.12
2022-09-11T08:05:06.583Z,71.11
2022-09-11T08:08:10.669Z,69.30
2022-09-11T08:11:14.484Z,67.78
2022-09-11T08:14:17.667Z,68.36
2022-09-11T08:17:20.581Z,67.49
2022-09-11T08:20:23.261Z,67.34
2022-09-11T08:23:27.321Z,67.30
2022-09-11T08:26:31.457Z,66.93
2022-09-11T08:29:34.265Z,66.90
2022-09-11T08:32:37.018Z,65.93
2022-09-11T08:35:39.665Z,64.74
2022-09-11T08:38:43.879Z,64.31
2022-09-11T08:41:48.177Z,64.42
2022-09-11T08:44:51.983Z,64.24
2022-09-11T08:47:55.563Z,64.28
2022-09-11T08:50:58.323Z,64.88
2022-09-11T08:54:03.709Z,64.30
2022-09-11T08:57:11.836Z,62.76
2022-09-11T09:00:19.250Z,61.96
2022-09-11T09:03:37.289Z,59.38
2022-09-11T09:06:52.687Z,59.05
2022-09-11T09:10:00.579Z,60.08
2022-09-11T09:13:08.185Z,58.83
2022-09-11T09:16:18.798Z,59.68
2022-09-11T09:19:23.372Z,59.88
2022-09-11T09:22:28.258Z,59.06
2022-09-11T09:25:34.944Z,58.56
2022-09-11T09:28:40.195Z,58.43
2022-09-11T09:31:42.808Z,59.62
2022-09-11T09:34:45.993Z,58.10
2022-09-11T09:37:48.726Z,58.11
2022-09-11T09:40:56.001Z,58.54
2022-09-11T09:44:00.429Z,58.01
2022-09-11T09:47:03.181Z,57.69
2022-09-11T09:50:06.700Z,58.05
2022-09-11T09:53:14.759Z,57.30
2022-09-11T09:56:19.180Z,57.51
2022-09-11T09:59:23.809Z,56.60
2022-09-11T10:02:38.692Z,56.50
2022-09-11T10:05:42.425Z,55.61
2022-09-11T10:08:45.146Z,55.29
2022-09-11T10:11:55.865Z,55.47
2022-09-11T10:14:59.995Z,55.03
2022-09-11T10:18:38.567Z,55.80
2022-09-11T10:21:41.253Z,55.80
2022-09-11T10:24:44.045Z,55.91
2022-09-11T10:27:54.552Z,55.77
2022-09-11T10:31:00.357Z,56.16
2022-09-11T10:34:03.154Z,56.49
2022-09-11T10:37:08.767Z,56.35
2022-09-11T10:40:20.758Z,56.76
2022-09-11T10:43:26.656Z,56.66
2022-09-11T10:46:39.979Z,56.59
2022-09-11T10:49:43.305Z,56.55
2022-09-11T10:52:48.622Z,54.95
2022-09-11T10:55:57.769Z,54.02
2022-09-11T10:59:04.422Z,54.18
2022-09-11T11:02:14.787Z,53.75
2022-09-11T11:05:21.440Z,52.79
2022-09-11T11:08:39.558Z,52.18
2022-09-11T11:11:50.587Z,52.66
2022-09-11T11:15:08.174Z,52.96
2022-09-11T11:18:20.910Z,53.42
2022-09-11T11:21:31.141Z,53.42
2022-09-11T11:24:41.284Z,53.18
2022-09-11T11:27:56.124Z,53.83
2022-09-11T11:31:06.890Z,53.44
2022-09-11T11:34:16.971Z,53.21
2022-09-11T11:37:21.337Z,52.55
2022-09-11T11:40:28.108Z,53.02
2022-09-11T11:43:32.529Z,53.12
2022-09-11T11:46:38.824Z,52.13
2022-09-11T11:49:49.023Z,50.70
2022-09-11T11:52:57.185Z,51.35
2022-09-11T11:56:03.950Z,49.96
2022-09-11T11:59:11.599Z,48.94
2022-09-11T12:02:19.160Z,49.08
2022-09-11T12:05:24.155Z,50.52
2022-09-11T12:08:27.589Z,49.83
2022-09-11T12:11:32.576Z,49.05
2022-09-11T12:14:35.305Z,49.40
2022-09-11T12:17:39.945Z,48.97
2022-09-11T12:20:43.050Z,48.24
2022-09-11T12:24:12.735Z,48.61
2022-09-11T12:27:52.072Z,48.05
2022-09-11T12:30:58.027Z,48.95
2022-09-11T12:34:02.227Z,49.11
2022-09-11T12:37:05.758Z,48.73
2022-09-11T12:40:17.037Z,48.98
2022-09-11T12:43:47.484Z,50.20
2022-09-11T12:47:16.557Z,51.12
2022-09-11T12:50:29.407Z,51.44
2022-09-11T12:53:32.880Z,51.26
2022-09-11T12:56:36.049Z,50.49
2022-09-11T12:59:39.346Z,50.56
2022-09-11T13:02:42.906Z,50.48
2022-09-11T13:05:54.606Z,50.07
2022-09-11T13:08:59.753Z,50.99
2022-09-11T13:12:35.125Z,51.15
2022-09-11T13:15:42.127Z,51.17
2022-09-11T13:18:45.161Z,51.08
2022-09-11T13:21:52.090Z,50.72
2022-09-11T13:25:05.374Z,49.87
2022-09-11T13:28:08.013Z,49.38
2022-09-11T13:31:15.307Z,48.64
2022-09-11T13:34:18.820Z,48.16
2022-09-11T13:37:31.149Z,47.59
2022-09-11T13:40:35.617Z,47.71
2022-09-11T13:43:39.759Z,47.35
2022-09-11T13:46:50.359Z,46.92
2022-09-11T13:49:54.103Z,46.76
2022-09-11T13:52:58.188Z,46.21
2022-09-11T13:56:00.881Z,45.24
2022-09-11T13:59:41.577Z,45.16
2022-09-11T14:02:49.447Z,45.90
2022-09-11T14:05:53.867Z,46.17
2022-09-11T14:08:58.106Z,46.47
2022-09-11T14:12:03.417Z,45.70
2022-09-11T14:15:10.660Z,45.73
2022-09-11T14:18:17.355Z,46.24
2022-09-11T14:21:22.588Z,46.15
2022-09-11T14:24:34.039Z,47.11
2022-09-11T14:27:38.662Z,47.62
2022-09-11T14:30:41.405Z,47.63
2022-09-11T14:33:44.186Z,47.73
2022-09-11T14:36:49.393Z,47.75
2022-09-11T14:39:56.044Z,48.33
2022-09-11T14:42:58.645Z,47.92
2022-09-11T14:46:01.942Z,48.44
2022-09-11T14:49:04.776Z,47.99
2022-09-11T14:52:07.723Z,49.34
2022-09-11T14:55:14.799Z,49.47
2022-09-11T14:58:17.499Z,49.28
2022-09-11T15:01:20.159Z,48.68
2022-09-11T15:04:23.432Z,48.37
2022-09-11T15:07:27.376Z,48.42
2022-09-11T15:10:32.774Z,48.76
2022-09-11T15:13:35.649Z,49.33
2022-09-11T15:16:38.328Z,49.79
2022-09-11T15:19:40.963Z,49.93
2022-09-11T15:22:44.492Z,50.11
2022-09-11T15:25:48.656Z,49.90
2022-09-11T15:28:53.285Z,49.63
2022-09-11T15:31:56.014Z,49.49
2022-09-11T15:34:58.718Z,49.46
2022-09-11T15:38:01.420Z,49.65
2022-09-11T15:41:06.101Z,49.91
2022-09-11T15:44:10.668Z,50.21
2022-09-11T15:47:13.684Z,50.04
2022-09-11T15:50:21.334Z,50.60
2022-09-11T15:53:24.128Z,51.48
2022-09-11T15:56:28.632Z,51.32
2022-09-11T15:59:31.285Z,51.78
2022-09-11T16:02:33.943Z,51.94
2022-09-11T16:05:41.481Z,52.30
2022-09-11T16:08:44.212Z,52.71
2022-09-11T16:11:50.299Z,52.78
2022-09-11T16:14:53.541Z,52.49
2022-09-11T16:17:56.175Z,52.19
2022-09-11T16:20:59.091Z,52.52
2022-09-11T16:24:02.135Z,52.71
2022-09-11T16:27:06.981Z,52.98
2022-09-11T16:30:42.866Z,53.22
2022-09-11T16:33:34.355Z,53.52
2022-09-11T16:36:38.664Z,53.63
2022-09-11T16:39:41.406Z,53.33
2022-09-11T16:42:45.411Z,52.83
2022-09-11T16:45:51.383Z,52.99
2022-09-11T16:48:56.969Z,52.95
2022-09-11T16:52:04.031Z,52.70
2022-09-11T16:55:07.752Z,52.55
2022-09-11T16:58:12.505Z,52.80
2022-09-11T17:01:15.934Z,52.95
2022-09-11T17:04:18.852Z,53.07
2022-09-11T17:07:21.742Z,53.26
2022-09-11T17:10:24.429Z,53.68
2022-09-11T17:13:29.065Z,53.91
2022-09-11T17:16:32.907Z,54.53
2022-09-11T17:19:35.913Z,54.88
2022-09-11T17:22:38.559Z,55.36
2022-09-11T17:25:41.801Z,55.30
2022-09-11T17:28:47.158Z,55.50
2022-09-11T17:32:01.119Z,55.44
2022-09-11T17:35:12.392Z,55.50
2022-09-11T17:38:14.992Z,55.72
2022-09-11T17:41:17.638Z,55.97
2022-09-11T17:44:24.098Z,56.01
2022-09-11T17:47:26.812Z,56.21
2022-09-11T17:50:29.410Z,56.39
2022-09-11T17:53:38.640Z,56.85
2022-09-11T17:56:42.349Z,57.06
2022-09-11T17:59:49.846Z,57.37
2022-09-11T18:02:53.941Z,57.21
2022-09-11T18:05:57.039Z,57.84
2022-09-11T18:09:01.819Z,57.92
2022-09-11T18:12:04.901Z,58.00
2022-09-11T18:15:10.668Z,58.33
2022-09-11T18:18:13.350Z,58.24
2022-09-11T18:21:16.170Z,58.29
2022-09-11T18:24:20.622Z,58.98
2022-09-11T18:27:24.273Z,59.10
2022-09-11T18:30:29.809Z,59.28
2022-09-11T18:33:32.548Z,59.73
2022-09-11T18:36:35.267Z,59.89
2022-09-11T18:39:38.395Z,60.21
2022-09-11T18:42:41.613Z,60.79
2022-09-11T18:45:45.878Z,61.16
2022-09-11T18:48:48.889Z,61.70
2022-09-11T18:51:51.916Z,61.92
2022-09-11T18:54:54.700Z,62.32
2022-09-11T18:57:58.031Z,62.62
2022-09-11T19:01:06.802Z,62.98
2022-09-11T19:04:10.124Z,63.20
2022-09-11T19:07:13.205Z,64.03
2022-09-11T19:10:15.876Z,64.61
2022-09-11T19:16:23.181Z,64.93
2022-09-11T19:19:25.997Z,65.18
2022-09-11T19:22:30.030Z,65.45
2022-09-11T19:25:35.296Z,65.57
2022-09-11T19:28:37.944Z,65.78
2022-09-11T19:31:42.271Z,65.68
2022-09-11T19:34:47.370Z,66.46
2022-09-11T19:37:50.321Z,67.00
2022-09-11T19:40:53.073Z,67.10
2022-09-11T19:43:56.296Z,67.40
2022-09-11T19:47:00.389Z,67.24
2022-09-11T19:50:03.044Z,67.04
2022-09-11T19:53:05.710Z,67.18
2022-09-11T19:56:08.506Z,67.79
2022-09-11T19:59:11.183Z,67.81
2022-09-11T20:02:15.247Z,68.09
2022-09-11T20:05:17.922Z,68.31
2022-09-11T20:08:20.818Z,68.47
2022-09-11T20:11:25.298Z,68.92
2022-09-11T20:14:27.948Z,68.79
2022-09-11T20:17:31.946Z,68.98
2022-09-11T20:20:34.609Z,69.03
2022-09-11T20:23:37.972Z,69.14
2022-09-11T20:26:40.632Z,70.01
2022-09-11T20:29:43.553Z,70.17
2022-09-11T20:32:47.547Z,70.34
2022-09-11T20:35:50.189Z,70.16
2022-09-11T20:38:53.396Z,70.26
2022-09-11T20:41:56.257Z,69.90
2022-09-11T20:45:00.592Z,70.12
2022-09-11T20:48:05.128Z,70.04
2022-09-11T20:51:08.748Z,70.44
2022-09-11T20:54:11.396Z,70.35
2022-09-11T20:57:13.996Z,70.17
2022-09-11T21:00:17.058Z,70.56
2022-09-11T21:03:21.092Z,70.68
2022-09-11T21:06:26.172Z,70.90
2022-09-11T21:09:29.281Z,70.63
2022-09-11T21:12:31.916Z,71.14
2022-09-11T21:15:34.601Z,71.61
2022-09-11T21:18:39.298Z,70.96
2022-09-11T21:21:42.072Z,71.29
2022-09-11T21:24:44.833Z,71.24
2022-09-11T21:27:48.725Z,71.97
2022-09-11T21:30:51.404Z,71.62
2022-09-11T21:33:55.596Z,71.84
2022-09-11T21:36:58.275Z,71.80
2022-09-11T21:40:00.958Z,71.85
2022-09-11T21:43:04.383Z,71.77
2022-09-11T21:46:08.196Z,71.78
2022-09-11T21:49:12.289Z,71.85
2022-09-11T21:52:14.920Z,71.29
2022-09-11T21:55:17.668Z,71.58
2022-09-11T21:58:21.026Z,71.59
2022-09-11T22:01:24.201Z,72.04
2022-09-11T22:04:28.449Z,71.92
2022-09-11T22:07:31.780Z,71.92
2022-09-11T22:10:34.473Z,71.75
2022-09-11T22:13:37.267Z,72.41
2022-09-11T22:16:39.933Z,73.15
2022-09-11T22:19:45.801Z,72.80
2022-09-11T22:22:48.837Z,73.10
2022-09-11T22:26:00.536Z,73.62
2022-09-11T22:29:03.158Z,73.40
2022-09-11T22:32:05.840Z,73.38
2022-09-11T22:35:10.775Z,72.93
2022-09-11T22:38:13.522Z,73.00
2022-09-11T22:41:16.287Z,72.96
2022-09-11T22:44:19.754Z,72.81
2022-09-11T22:47:22.441Z,73.55
2022-09-11T22:50:26.617Z,73.50
2022-09-11T22:53:29.474Z,73.36
2022-09-11T22:56:32.130Z,73.36
2022-09-11T22:59:34.752Z,73.67
2022-09-11T23:02:37.684Z,73.40
2022-09-11T23:06:07.717Z,73.49
2022-09-11T23:09:11.775Z,74.13
2022-09-11T23:12:14.617Z,74.63
2022-09-11T23:15:17.483Z,74.46
2022-09-11T23:18:20.215Z,74.08
2022-09-11T23:21:24.615Z,73.98
2022-09-11T23:24:27.314Z,73.91
2022-09-11T23:27:30.031Z,74.68
2022-09-11T23:30:32.733Z,75.64
2022-09-11T23:33:35.479Z,75.81
2022-09-11T23:36:39.631Z,75.32
2022-09-11T23:39:43.810Z,75.79
2022-09-11T23:42:46.501Z,76.38
2022-09-11T23:45:49.235Z,76.40
2022-09-11T23:48:52.040Z,75.82
2022-09-11T23:51:56.168Z,76.07
2022-09-11T23:54:58.854Z,76.30
2022-09-11T23:58:01.588Z,76.25
